
Distance (Route):
Temperature : 2.3°C
Humidity : 80.0%
Pressure : 764.1hPa| Receiver | Frames | First received | Last received |
|---|---|---|---|
| SP3WXH-11 | 28 | 2026-09-02 08:19:42 | 2026-09-02 08:33:40 |
| Receiver | Date | Latitude | Longitude | Direction | Speed | Altitude | Climb | Temperature | Humidity | Pressure | Voltage | Killtimer | Uptime | BKT | XDATA |
|---|---|---|---|---|---|---|---|---|---|---|---|---|---|---|---|
| SP3WXH-11 | 2026-09-02 08:33:40 | 54.53594 | 17.19174 | 102° | 37km/h | 2407m | -13.5m/s | 2.3°C | 80.0% | 764.1hPa | 0V | 00:00:00 | 00:00:00 | 00:00:00 | |
| SP3WXH-11 | 2026-09-02 08:33:09 | 54.53633 | 17.18808 | 101° | 42km/h | 2680m | -10.9m/s | 0.1°C | 88.7% | 738.6hPa | 0V | 00:00:00 | 00:00:00 | 00:00:00 | |
| SP3WXH-11 | 2026-09-02 08:32:38 | 54.53669 | 17.18259 | 96° | 38km/h | 3043m | -12.4m/s | -1.1°C | 81.5% | 705.9hPa | 0V | 00:00:00 | 00:00:00 | 00:00:00 | |
| SP3WXH-11 | 2026-09-02 08:32:07 | 54.53717 | 17.17183 | 98° | 37km/h | 3727m | -8.2m/s | -5.0°C | 63.8% | 647.7hPa | 0V | 00:00:00 | 00:00:00 | 00:00:00 | |
| SP3WXH-11 | 2026-09-02 08:31:36 | 54.53722 | 17.17117 | 96° | 37km/h | 3769m | -9.3m/s | -5.4°C | 62.4% | 644.2hPa | 0V | 00:00:00 | 00:00:00 | 00:00:00 | |
| SP3WXH-11 | 2026-09-02 08:31:05 | 54.53780 | 17.16642 | 106° | 40km/h | 4073m | -9.4m/s | -6.2°C | 50.8% | 619.3hPa | 0V | 00:00:00 | 00:00:00 | 00:00:00 | |
| SP3WXH-11 | 2026-09-02 08:30:34 | 54.53912 | 17.16127 | 107° | 38km/h | 4441m | -9.3m/s | -8.8°C | 62.0% | 590.8hPa | 0V | 00:00:00 | 00:00:00 | 00:00:00 | |
| SP3WXH-11 | 2026-09-02 08:30:03 | 54.54019 | 17.15552 | 112° | 35km/h | 4814m | -9.4m/s | -11.4°C | 61.3% | 562.7hPa | 0V | 00:00:00 | 00:00:00 | 00:00:00 | |
| SP3WXH-11 | 2026-09-02 08:29:32 | 54.54144 | 17.14964 | 103° | 40km/h | 5212m | -9.4m/s | -13.8°C | 54.6% | 534.0hPa | 0V | 00:00:00 | 00:00:00 | 00:00:00 | |
| SP3WXH-11 | 2026-09-02 08:29:01 | 54.54191 | 17.14644 | 102° | 46km/h | 5418m | -9.5m/s | -15.4°C | 54.6% | 519.6hPa | 0V | 00:00:00 | 00:00:00 | 00:00:00 | |
| SP3WXH-11 | 2026-09-02 08:28:30 | 54.54277 | 17.13965 | 102° | 44km/h | 5805m | -9.9m/s | -18.3°C | 67.0% | 493.3hPa | 0V | 00:00:00 | 00:00:00 | 00:00:00 | |
| SP3WXH-11 | 2026-09-02 08:27:59 | 54.54346 | 17.13475 | 105° | 49km/h | 6085m | -10.1m/s | -20.6°C | 69.0% | 474.9hPa | 0V | 00:00:00 | 00:00:00 | 00:00:00 | |
| SP3WXH-11 | 2026-09-02 08:27:28 | 54.54481 | 17.12476 | 94° | 40km/h | 6681m | -10.6m/s | -24.8°C | 43.9% | 437.6hPa | 0V | 00:00:00 | 00:00:00 | 00:00:00 | |
| SP3WXH-11 | 2026-09-02 08:26:57 | 54.54473 | 17.12237 | 81° | 37km/h | 6839m | -10.4m/s | -25.4°C | 33.5% | 427.9hPa | 0V | 00:00:00 | 00:00:00 | 00:00:00 | |
| SP3WXH-11 | 2026-09-02 08:26:26 | 54.54452 | 17.11744 | 83° | 46km/h | 7165m | -10.2m/s | -27.8°C | 39.3% | 408.9hPa | 0V | 00:00:00 | 00:00:00 | 00:00:00 | |
| SP3WXH-11 | 2026-09-02 08:25:55 | 54.54421 | 17.11132 | 82° | 46km/h | 7537m | -10.2m/s | -30.4°C | 30.0% | 388.1hPa | 0V | 00:00:00 | 00:00:00 | 00:00:00 | |
| SP3WXH-11 | 2026-09-02 08:25:24 | 54.54371 | 17.10164 | 84° | 62km/h | 8037m | -10.5m/s | -34.5°C | 70.6% | 361.2hPa | 0V | 00:00:00 | 00:00:00 | 00:00:00 | |
| SP3WXH-11 | 2026-09-02 08:24:53 | 54.54360 | 17.09570 | 89° | 57km/h | 8304m | -12.3m/s | -36.6°C | 63.9% | 347.0hPa | 0V | 00:00:00 | 00:00:00 | 00:00:00 | |
| SP3WXH-11 | 2026-09-02 08:24:22 | 54.54368 | 17.08825 | 102° | 66km/h | 8324m | 2.3m/s | -36.7°C | 65.5% | 345.9hPa | 0V | 00:00:00 | 00:00:00 | 00:00:00 | |
| SP3WXH-11 | 2026-09-02 08:23:51 | 54.54373 | 17.08010 | 87° | 53km/h | 8198m | 1.7m/s | -35.9°C | 67.4% | 352.5hPa | 0V | 00:00:00 | 00:00:00 | 00:00:00 | |
| SP3WXH-11 | 2026-09-02 08:23:20 | 54.54340 | 17.07152 | 79° | 68km/h | 8060m | 5.5m/s | -34.6°C | 55.9% | 359.2hPa | 0V | 00:00:00 | 00:00:00 | 00:00:00 | |
| SP3WXH-11 | 2026-09-02 08:22:49 | 54.54286 | 17.06310 | 71° | 53km/h | 7935m | 4.6m/s | -33.6°C | 50.1% | 366.1hPa | 0V | 00:00:00 | 00:00:00 | 00:00:00 | |
| SP3WXH-11 | 2026-09-02 08:22:18 | 54.54251 | 17.05523 | 85° | 57km/h | 7779m | 6.2m/s | -32.4°C | 38.7% | 374.3hPa | 0V | 00:00:00 | 00:00:00 | 00:00:00 | |
| SP3WXH-11 | 2026-09-02 08:21:46 | 54.54223 | 17.04863 | 103° | 55km/h | 7656m | 0.7m/s | -31.4°C | 25.3% | 381.0hPa | 0V | 00:00:00 | 00:00:00 | 00:00:00 | |
| SP3WXH-11 | 2026-09-02 08:21:15 | 54.54185 | 17.04155 | 99° | 53km/h | 7516m | 4.2m/s | -30.5°C | 30.0% | 388.6hPa | 0V | 00:00:00 | 00:00:00 | 00:00:00 | |
| SP3WXH-11 | 2026-09-02 08:20:44 | 54.54166 | 17.03599 | 102° | 35km/h | 7394m | 1.7m/s | -29.7°C | 28.3% | 395.6hPa | 0V | 00:00:00 | 00:00:00 | 00:00:00 | |
| SP3WXH-11 | 2026-09-02 08:20:13 | 54.54138 | 17.02962 | 101° | 33km/h | 7257m | 4.2m/s | -28.6°C | 43.7% | 403.5hPa | 0V | 00:00:00 | 00:00:00 | 00:00:00 | |
| SP3WXH-11 | 2026-09-02 08:19:42 | 54.54099 | 17.02399 | 92° | 47km/h | 7107m | 1.3m/s | -27.4°C | 31.4% | 411.5hPa | 0V | 00:00:00 | 00:00:00 | 00:00:00 |